sensor_id;sensor_type;location;lat;lon;timestamp;P1;durP1;ratioP1;P2;durP2;ratioP2
51718;SDS011;37795;53.236;5.704;2023-03-14T00:02:10;24.70;;;6.87;;
51718;SDS011;37795;53.236;5.704;2023-03-14T00:04:36;19.87;;;6.53;;
51718;SDS011;37795;53.236;5.704;2023-03-14T00:07:02;27.17;;;8.25;;
51718;SDS011;37795;53.236;5.704;2023-03-14T00:09:28;24.77;;;8.07;;
51718;SDS011;37795;53.236;5.704;2023-03-14T00:11:55;18.77;;;7.20;;
51718;SDS011;37795;53.236;5.704;2023-03-14T00:14:21;19.30;;;6.60;;
51718;SDS011;37795;53.236;5.704;2023-03-14T00:16:46;17.00;;;6.30;;
51718;SDS011;37795;53.236;5.704;2023-03-14T00:19:12;32.40;;;7.60;;
51718;SDS011;37795;53.236;5.704;2023-03-14T00:21:38;19.90;;;6.53;;
51718;SDS011;37795;53.236;5.704;2023-03-14T00:24:04;20.93;;;6.83;;
51718;SDS011;37795;53.236;5.704;2023-03-14T00:26:30;13.70;;;4.75;;
51718;SDS011;37795;53.236;5.704;2023-03-14T00:28:56;25.67;;;6.70;;
51718;SDS011;37795;53.236;5.704;2023-03-14T00:31:22;24.17;;;5.43;;
51718;SDS011;37795;53.236;5.704;2023-03-14T00:33:48;16.20;;;6.00;;
51718;SDS011;37795;53.236;5.704;2023-03-14T00:36:16;18.60;;;7.57;;
51718;SDS011;37795;53.236;5.704;2023-03-14T00:38:43;24.45;;;5.65;;
51718;SDS011;37795;53.236;5.704;2023-03-14T00:41:11;23.35;;;6.00;;
51718;SDS011;37795;53.236;5.704;2023-03-14T00:43:38;27.40;;;6.03;;
51718;SDS011;37795;53.236;5.704;2023-03-14T00:46:04;19.27;;;5.93;;
51718;SDS011;37795;53.236;5.704;2023-03-14T00:48:31;15.52;;;6.30;;
51718;SDS011;37795;53.236;5.704;2023-03-14T00:50:57;21.05;;;5.15;;
51718;SDS011;37795;53.236;5.704;2023-03-14T00:53:23;15.13;;;6.43;;
51718;SDS011;37795;53.236;5.704;2023-03-14T00:55:49;18.57;;;6.10;;
51718;SDS011;37795;53.236;5.704;2023-03-14T00:58:16;21.15;;;7.57;;
51718;SDS011;37795;53.236;5.704;2023-03-14T01:00:43;24.85;;;8.32;;
51718;SDS011;37795;53.236;5.704;2023-03-14T01:05:36;24.80;;;6.90;;
51718;SDS011;37795;53.236;5.704;2023-03-14T01:08:02;19.85;;;6.53;;
51718;SDS011;37795;53.236;5.704;2023-03-14T01:10:28;21.63;;;5.97;;
51718;SDS011;37795;53.236;5.704;2023-03-14T01:12:54;22.70;;;6.57;;
51718;SDS011;37795;53.236;5.704;2023-03-14T01:15:20;22.90;;;7.40;;
51718;SDS011;37795;53.236;5.704;2023-03-14T01:17:46;25.57;;;6.83;;
51718;SDS011;37795;53.236;5.704;2023-03-14T01:20:13;19.97;;;5.90;;
51718;SDS011;37795;53.236;5.704;2023-03-14T01:22:40;20.75;;;7.03;;
51718;SDS011;37795;53.236;5.704;2023-03-14T01:25:07;25.33;;;6.43;;
51718;SDS011;37795;53.236;5.704;2023-03-14T01:27:37;22.33;;;6.85;;
51718;SDS011;37795;53.236;5.704;2023-03-14T01:30:03;31.00;;;8.43;;
51718;SDS011;37795;53.236;5.704;2023-03-14T01:32:30;21.02;;;7.90;;
51718;SDS011;37795;53.236;5.704;2023-03-14T01:34:56;25.87;;;7.87;;
51718;SDS011;37795;53.236;5.704;2023-03-14T01:37:21;21.80;;;7.80;;
51718;SDS011;37795;53.236;5.704;2023-03-14T01:39:47;24.07;;;5.97;;
51718;SDS011;37795;53.236;5.704;2023-03-14T01:42:13;19.33;;;6.63;;
51718;SDS011;37795;53.236;5.704;2023-03-14T01:47:21;26.15;;;7.53;;
51718;SDS011;37795;53.236;5.704;2023-03-14T01:49:51;27.17;;;8.57;;
51718;SDS011;37795;53.236;5.704;2023-03-14T01:52:28;19.50;;;7.40;;
51718;SDS011;37795;53.236;5.704;2023-03-14T01:55:17;27.95;;;7.30;;
51718;SDS011;37795;53.236;5.704;2023-03-14T01:57:54;28.92;;;8.15;;
51718;SDS011;37795;53.236;5.704;2023-03-14T02:00:25;24.05;;;7.50;;
51718;SDS011;37795;53.236;5.704;2023-03-14T02:02:55;28.50;;;6.47;;
51718;SDS011;37795;53.236;5.704;2023-03-14T02:05:25;38.97;;;9.13;;
51718;SDS011;37795;53.236;5.704;2023-03-14T02:07:56;29.50;;;8.25;;
51718;SDS011;37795;53.236;5.704;2023-03-14T02:10:25;24.75;;;7.60;;
51718;SDS011;37795;53.236;5.704;2023-03-14T02:12:54;24.13;;;7.78;;
51718;SDS011;37795;53.236;5.704;2023-03-14T02:15:21;28.35;;;6.40;;
51718;SDS011;37795;53.236;5.704;2023-03-14T02:17:48;21.52;;;6.72;;
51718;SDS011;37795;53.236;5.704;2023-03-14T02:20:17;26.80;;;7.25;;
51718;SDS011;37795;53.236;5.704;2023-03-14T02:22:53;20.33;;;6.82;;
51718;SDS011;37795;53.236;5.704;2023-03-14T02:25:22;27.27;;;8.50;;
51718;SDS011;37795;53.236;5.704;2023-03-14T02:27:50;27.98;;;6.95;;
51718;SDS011;37795;53.236;5.704;2023-03-14T02:30:18;24.20;;;7.60;;
51718;SDS011;37795;53.236;5.704;2023-03-14T02:32:49;25.20;;;8.00;;
51718;SDS011;37795;53.236;5.704;2023-03-14T02:35:21;27.75;;;7.75;;
51718;SDS011;37795;53.236;5.704;2023-03-14T02:37:51;24.55;;;7.18;;
51718;SDS011;37795;53.236;5.704;2023-03-14T02:40:21;25.25;;;7.13;;
51718;SDS011;37795;53.236;5.704;2023-03-14T02:42:47;23.60;;;7.37;;
51718;SDS011;37795;53.236;5.704;2023-03-14T02:47:54;30.33;;;8.37;;
51718;SDS011;37795;53.236;5.704;2023-03-14T02:50:26;29.33;;;8.50;;
51718;SDS011;37795;53.236;5.704;2023-03-14T02:52:55;24.30;;;7.53;;
51718;SDS011;37795;53.236;5.704;2023-03-14T02:55:22;32.37;;;8.30;;
51718;SDS011;37795;53.236;5.704;2023-03-14T02:57:48;21.42;;;7.97;;
51718;SDS011;37795;53.236;5.704;2023-03-14T03:00:15;35.15;;;8.32;;
51718;SDS011;37795;53.236;5.704;2023-03-14T03:02:41;28.13;;;9.50;;
51718;SDS011;37795;53.236;5.704;2023-03-14T03:05:07;31.03;;;9.87;;
51718;SDS011;37795;53.236;5.704;2023-03-14T03:07:32;41.67;;;7.63;;
51718;SDS011;37795;53.236;5.704;2023-03-14T03:09:58;33.60;;;6.83;;
51718;SDS011;37795;53.236;5.704;2023-03-14T03:12:24;17.13;;;6.53;;
51718;SDS011;37795;53.236;5.704;2023-03-14T03:14:50;26.63;;;7.43;;
51718;SDS011;37795;53.236;5.704;2023-03-14T03:17:15;27.20;;;8.70;;
51718;SDS011;37795;53.236;5.704;2023-03-14T03:19:42;26.43;;;7.93;;
51718;SDS011;37795;53.236;5.704;2023-03-14T03:24:33;31.80;;;8.98;;
51718;SDS011;37795;53.236;5.704;2023-03-14T03:26:59;35.83;;;8.70;;
51718;SDS011;37795;53.236;5.704;2023-03-14T03:29:25;32.70;;;9.23;;
51718;SDS011;37795;53.236;5.704;2023-03-14T03:31:51;29.87;;;9.80;;
51718;SDS011;37795;53.236;5.704;2023-03-14T03:34:16;30.17;;;9.87;;
51718;SDS011;37795;53.236;5.704;2023-03-14T03:36:42;27.47;;;8.93;;
51718;SDS011;37795;53.236;5.704;2023-03-14T03:39:08;22.67;;;8.50;;
51718;SDS011;37795;53.236;5.704;2023-03-14T03:41:33;22.60;;;7.90;;
51718;SDS011;37795;53.236;5.704;2023-03-14T03:43:59;37.37;;;10.63;;
51718;SDS011;37795;53.236;5.704;2023-03-14T03:46:25;38.33;;;9.90;;
51718;SDS011;37795;53.236;5.704;2023-03-14T03:48:57;29.67;;;9.73;;
51718;SDS011;37795;53.236;5.704;2023-03-14T03:51:24;39.70;;;9.55;;
51718;SDS011;37795;53.236;5.704;2023-03-14T03:53:50;37.00;;;9.52;;
51718;SDS011;37795;53.236;5.704;2023-03-14T03:56:16;32.45;;;9.25;;
51718;SDS011;37795;53.236;5.704;2023-03-14T03:58:42;31.43;;;9.90;;
51718;SDS011;37795;53.236;5.704;2023-03-14T04:01:08;33.38;;;9.52;;
51718;SDS011;37795;53.236;5.704;2023-03-14T04:03:36;33.47;;;9.20;;
51718;SDS011;37795;53.236;5.704;2023-03-14T04:06:06;27.45;;;8.65;;
51718;SDS011;37795;53.236;5.704;2023-03-14T04:08:37;32.03;;;11.02;;
51718;SDS011;37795;53.236;5.704;2023-03-14T04:11:03;43.78;;;11.20;;
51718;SDS011;37795;53.236;5.704;2023-03-14T04:13:29;31.70;;;9.82;;
51718;SDS011;37795;53.236;5.704;2023-03-14T04:15:54;31.67;;;10.50;;
51718;SDS011;37795;53.236;5.704;2023-03-14T04:18:21;35.03;;;10.80;;
51718;SDS011;37795;53.236;5.704;2023-03-14T04:20:53;28.75;;;9.15;;
51718;SDS011;37795;53.236;5.704;2023-03-14T04:23:19;32.65;;;8.93;;
51718;SDS011;37795;53.236;5.704;2023-03-14T04:28:12;30.13;;;9.93;;
51718;SDS011;37795;53.236;5.704;2023-03-14T04:30:37;33.73;;;11.10;;
51718;SDS011;37795;53.236;5.704;2023-03-14T04:33:03;34.33;;;8.83;;
51718;SDS011;37795;53.236;5.704;2023-03-14T04:35:32;22.97;;;7.67;;
51718;SDS011;37795;53.236;5.704;2023-03-14T04:37:58;24.05;;;8.93;;
51718;SDS011;37795;53.236;5.704;2023-03-14T04:40:24;22.53;;;7.07;;
51718;SDS011;37795;53.236;5.704;2023-03-14T04:42:50;30.75;;;8.93;;
51718;SDS011;37795;53.236;5.704;2023-03-14T04:45:16;34.83;;;6.90;;
51718;SDS011;37795;53.236;5.704;2023-03-14T04:47:42;20.70;;;6.67;;
51718;SDS011;37795;53.236;5.704;2023-03-14T04:50:09;28.33;;;7.53;;
51718;SDS011;37795;53.236;5.704;2023-03-14T04:52:35;15.32;;;5.10;;
51718;SDS011;37795;53.236;5.704;2023-03-14T04:55:00;18.67;;;6.17;;
51718;SDS011;37795;53.236;5.704;2023-03-14T04:57:26;17.67;;;5.90;;
51718;SDS011;37795;53.236;5.704;2023-03-14T04:59:52;13.57;;;6.30;;
51718;SDS011;37795;53.236;5.704;2023-03-14T05:02:18;16.30;;;5.50;;
51718;SDS011;37795;53.236;5.704;2023-03-14T05:04:43;15.83;;;5.03;;
51718;SDS011;37795;53.236;5.704;2023-03-14T05:07:09;7.40;;;3.90;;
51718;SDS011;37795;53.236;5.704;2023-03-14T05:09:35;15.33;;;4.70;;
51718;SDS011;37795;53.236;5.704;2023-03-14T05:12:01;17.80;;;5.93;;
51718;SDS011;37795;53.236;5.704;2023-03-14T05:14:26;8.13;;;4.00;;
51718;SDS011;37795;53.236;5.704;2023-03-14T05:16:52;7.50;;;4.23;;
51718;SDS011;37795;53.236;5.704;2023-03-14T05:19:18;13.37;;;5.30;;
51718;SDS011;37795;53.236;5.704;2023-03-14T05:21:43;18.07;;;4.60;;
51718;SDS011;37795;53.236;5.704;2023-03-14T05:24:09;16.57;;;4.20;;
51718;SDS011;37795;53.236;5.704;2023-03-14T05:26:35;10.23;;;3.60;;
51718;SDS011;37795;53.236;5.704;2023-03-14T05:29:01;17.23;;;4.17;;
51718;SDS011;37795;53.236;5.704;2023-03-14T05:31:26;17.43;;;3.80;;
51718;SDS011;37795;53.236;5.704;2023-03-14T05:33:52;7.00;;;2.93;;
51718;SDS011;37795;53.236;5.704;2023-03-14T05:36:18;13.57;;;4.77;;
51718;SDS011;37795;53.236;5.704;2023-03-14T05:38:44;14.17;;;3.70;;
51718;SDS011;37795;53.236;5.704;2023-03-14T05:41:09;9.33;;;2.47;;
51718;SDS011;37795;53.236;5.704;2023-03-14T05:43:35;10.60;;;3.30;;
51718;SDS011;37795;53.236;5.704;2023-03-14T05:46:01;5.17;;;2.20;;
51718;SDS011;37795;53.236;5.704;2023-03-14T05:48:26;8.87;;;3.07;;
51718;SDS011;37795;53.236;5.704;2023-03-14T05:50:56;10.50;;;4.30;;
51718;SDS011;37795;53.236;5.704;2023-03-14T05:53:22;15.68;;;4.72;;
51718;SDS011;37795;53.236;5.704;2023-03-14T05:55:50;15.07;;;4.37;;
51718;SDS011;37795;53.236;5.704;2023-03-14T05:58:20;24.40;;;4.80;;
51718;SDS011;37795;53.236;5.704;2023-03-14T06:00:46;14.67;;;3.63;;
51718;SDS011;37795;53.236;5.704;2023-03-14T06:03:11;10.77;;;4.13;;
51718;SDS011;37795;53.236;5.704;2023-03-14T06:05:37;11.57;;;3.33;;
51718;SDS011;37795;53.236;5.704;2023-03-14T06:08:03;10.50;;;2.77;;
51718;SDS011;37795;53.236;5.704;2023-03-14T06:10:29;6.57;;;2.72;;
51718;SDS011;37795;53.236;5.704;2023-03-14T06:12:54;4.83;;;2.40;;
51718;SDS011;37795;53.236;5.704;2023-03-14T06:15:20;7.53;;;1.90;;
51718;SDS011;37795;53.236;5.704;2023-03-14T06:17:46;8.73;;;2.13;;
51718;SDS011;37795;53.236;5.704;2023-03-14T06:20:12;8.33;;;1.90;;
51718;SDS011;37795;53.236;5.704;2023-03-14T06:22:38;6.43;;;2.13;;
51718;SDS011;37795;53.236;5.704;2023-03-14T06:25:05;4.35;;;1.83;;
51718;SDS011;37795;53.236;5.704;2023-03-14T06:27:31;4.30;;;1.80;;
51718;SDS011;37795;53.236;5.704;2023-03-14T06:29:58;5.32;;;1.60;;
51718;SDS011;37795;53.236;5.704;2023-03-14T06:32:23;5.07;;;2.10;;
51718;SDS011;37795;53.236;5.704;2023-03-14T06:34:49;13.10;;;2.10;;
51718;SDS011;37795;53.236;5.704;2023-03-14T06:37:15;12.83;;;2.47;;
51718;SDS011;37795;53.236;5.704;2023-03-14T06:39:41;4.80;;;1.90;;
51718;SDS011;37795;53.236;5.704;2023-03-14T06:42:08;5.80;;;1.80;;
51718;SDS011;37795;53.236;5.704;2023-03-14T06:44:34;3.57;;;1.50;;
51718;SDS011;37795;53.236;5.704;2023-03-14T06:47:00;3.90;;;1.87;;
51718;SDS011;37795;53.236;5.704;2023-03-14T06:49:26;4.23;;;1.50;;
51718;SDS011;37795;53.236;5.704;2023-03-14T06:57:22;8.50;;;2.03;;
51718;SDS011;37795;53.236;5.704;2023-03-14T06:59:48;9.45;;;2.45;;
51718;SDS011;37795;53.236;5.704;2023-03-14T07:02:14;4.80;;;1.90;;
51718;SDS011;37795;53.236;5.704;2023-03-14T07:04:39;6.57;;;2.17;;
51718;SDS011;37795;53.236;5.704;2023-03-14T07:07:05;15.10;;;2.57;;
51718;SDS011;37795;53.236;5.704;2023-03-14T07:09:32;8.82;;;2.30;;
51718;SDS011;37795;53.236;5.704;2023-03-14T07:11:58;9.63;;;3.08;;
51718;SDS011;37795;53.236;5.704;2023-03-14T07:14:24;12.53;;;2.57;;
51718;SDS011;37795;53.236;5.704;2023-03-14T07:16:49;7.53;;;2.47;;
51718;SDS011;37795;53.236;5.704;2023-03-14T07:19:15;6.43;;;2.47;;
51718;SDS011;37795;53.236;5.704;2023-03-14T07:21:41;3.90;;;2.13;;
51718;SDS011;37795;53.236;5.704;2023-03-14T07:24:06;15.60;;;3.30;;
51718;SDS011;37795;53.236;5.704;2023-03-14T07:26:32;6.57;;;2.53;;
51718;SDS011;37795;53.236;5.704;2023-03-14T07:28:58;16.33;;;3.07;;
51718;SDS011;37795;53.236;5.704;2023-03-14T07:31:24;11.27;;;3.23;;
51718;SDS011;37795;53.236;5.704;2023-03-14T07:33:50;6.73;;;2.63;;
51718;SDS011;37795;53.236;5.704;2023-03-14T07:36:16;10.97;;;4.03;;
51718;SDS011;37795;53.236;5.704;2023-03-14T07:38:42;18.33;;;3.55;;
51718;SDS011;37795;53.236;5.704;2023-03-14T07:41:08;7.93;;;3.47;;
51718;SDS011;37795;53.236;5.704;2023-03-14T07:43:33;12.03;;;3.97;;
51718;SDS011;37795;53.236;5.704;2023-03-14T07:45:59;16.67;;;5.40;;
51718;SDS011;37795;53.236;5.704;2023-03-14T07:48:25;14.37;;;4.13;;
51718;SDS011;37795;53.236;5.704;2023-03-14T07:50:52;12.98;;;4.30;;
51718;SDS011;37795;53.236;5.704;2023-03-14T07:53:18;12.00;;;4.13;;
51718;SDS011;37795;53.236;5.704;2023-03-14T07:55:45;18.95;;;4.50;;
51718;SDS011;37795;53.236;5.704;2023-03-14T07:58:11;16.83;;;4.40;;
51718;SDS011;37795;53.236;5.704;2023-03-14T08:00:37;13.20;;;4.72;;
51718;SDS011;37795;53.236;5.704;2023-03-14T08:03:03;10.13;;;3.90;;
51718;SDS011;37795;53.236;5.704;2023-03-14T08:05:28;12.37;;;4.77;;
51718;SDS011;37795;53.236;5.704;2023-03-14T08:07:54;17.77;;;5.47;;
51718;SDS011;37795;53.236;5.704;2023-03-14T08:10:20;12.93;;;5.40;;
51718;SDS011;37795;53.236;5.704;2023-03-14T08:12:50;19.77;;;4.82;;
51718;SDS011;37795;53.236;5.704;2023-03-14T08:15:18;23.73;;;6.85;;
51718;SDS011;37795;53.236;5.704;2023-03-14T08:17:44;14.43;;;5.10;;
51718;SDS011;37795;53.236;5.704;2023-03-14T08:20:10;15.32;;;5.35;;
51718;SDS011;37795;53.236;5.704;2023-03-14T08:22:38;20.23;;;6.82;;
51718;SDS011;37795;53.236;5.704;2023-03-14T08:25:05;22.17;;;6.67;;
51718;SDS011;37795;53.236;5.704;2023-03-14T08:27:31;23.20;;;5.75;;
51718;SDS011;37795;53.236;5.704;2023-03-14T08:29:57;20.07;;;6.23;;
51718;SDS011;37795;53.236;5.704;2023-03-14T08:32:22;12.63;;;4.17;;
51718;SDS011;37795;53.236;5.704;2023-03-14T08:34:48;10.10;;;4.97;;
51718;SDS011;37795;53.236;5.704;2023-03-14T08:37:14;15.57;;;5.13;;
51718;SDS011;37795;53.236;5.704;2023-03-14T08:39:40;13.00;;;5.03;;
51718;SDS011;37795;53.236;5.704;2023-03-14T08:42:06;16.57;;;5.23;;
51718;SDS011;37795;53.236;5.704;2023-03-14T08:44:31;15.87;;;5.33;;
51718;SDS011;37795;53.236;5.704;2023-03-14T08:46:57;17.10;;;5.40;;
51718;SDS011;37795;53.236;5.704;2023-03-14T08:49:23;23.93;;;6.77;;
51718;SDS011;37795;53.236;5.704;2023-03-14T08:51:49;18.13;;;4.83;;
51718;SDS011;37795;53.236;5.704;2023-03-14T08:54:14;17.27;;;5.33;;
51718;SDS011;37795;53.236;5.704;2023-03-14T08:56:40;21.20;;;4.97;;
51718;SDS011;37795;53.236;5.704;2023-03-14T08:59:06;14.80;;;5.13;;
51718;SDS011;37795;53.236;5.704;2023-03-14T09:01:33;15.07;;;4.95;;
51718;SDS011;37795;53.236;5.704;2023-03-14T09:03:58;16.30;;;4.50;;
51718;SDS011;37795;53.236;5.704;2023-03-14T09:06:24;17.60;;;5.77;;
51718;SDS011;37795;53.236;5.704;2023-03-14T09:08:50;17.13;;;5.50;;
51718;SDS011;37795;53.236;5.704;2023-03-14T09:11:16;15.97;;;5.17;;
51718;SDS011;37795;53.236;5.704;2023-03-14T09:13:42;16.45;;;5.20;;
51718;SDS011;37795;53.236;5.704;2023-03-14T09:16:08;20.93;;;4.50;;
51718;SDS011;37795;53.236;5.704;2023-03-14T09:18:34;16.50;;;5.27;;
51718;SDS011;37795;53.236;5.704;2023-03-14T09:21:00;21.23;;;6.53;;
51718;SDS011;37795;53.236;5.704;2023-03-14T09:23:26;16.83;;;5.87;;
51718;SDS011;37795;53.236;5.704;2023-03-14T09:25:55;11.88;;;4.85;;
51718;SDS011;37795;53.236;5.704;2023-03-14T09:28:22;17.50;;;5.22;;
51718;SDS011;37795;53.236;5.704;2023-03-14T09:30:48;14.32;;;5.97;;
51718;SDS011;37795;53.236;5.704;2023-03-14T09:33:15;20.25;;;5.15;;
51718;SDS011;37795;53.236;5.704;2023-03-14T09:35:41;15.20;;;5.40;;
51718;SDS011;37795;53.236;5.704;2023-03-14T09:38:07;15.63;;;4.93;;
51718;SDS011;37795;53.236;5.704;2023-03-14T09:40:35;9.50;;;4.63;;
51718;SDS011;37795;53.236;5.704;2023-03-14T09:43:02;14.20;;;3.90;;
51718;SDS011;37795;53.236;5.704;2023-03-14T09:45:29;13.52;;;4.68;;
51718;SDS011;37795;53.236;5.704;2023-03-14T09:47:58;12.10;;;3.78;;
51718;SDS011;37795;53.236;5.704;2023-03-14T09:50:26;11.63;;;4.10;;
51718;SDS011;37795;53.236;5.704;2023-03-14T09:52:56;15.35;;;5.65;;
51718;SDS011;37795;53.236;5.704;2023-03-14T09:55:28;23.20;;;5.32;;
51718;SDS011;37795;53.236;5.704;2023-03-14T09:57:58;12.00;;;4.77;;
51718;SDS011;37795;53.236;5.704;2023-03-14T10:00:27;13.98;;;4.32;;
51718;SDS011;37795;53.236;5.704;2023-03-14T10:05:25;11.80;;;3.25;;
51718;SDS011;37795;53.236;5.704;2023-03-14T10:07:53;10.52;;;3.42;;
51718;SDS011;37795;53.236;5.704;2023-03-14T10:10:19;8.80;;;3.63;;
51718;SDS011;37795;53.236;5.704;2023-03-14T10:12:47;7.50;;;3.60;;
51718;SDS011;37795;53.236;5.704;2023-03-14T10:15:22;13.23;;;3.95;;
51718;SDS011;37795;53.236;5.704;2023-03-14T10:17:58;11.75;;;3.80;;
51718;SDS011;37795;53.236;5.704;2023-03-14T10:20:26;7.75;;;3.00;;
51718;SDS011;37795;53.236;5.704;2023-03-14T10:23:02;9.05;;;3.17;;
51718;SDS011;37795;53.236;5.704;2023-03-14T10:25:40;10.95;;;3.50;;
51718;SDS011;37795;53.236;5.704;2023-03-14T10:30:47;16.08;;;3.55;;
51718;SDS011;37795;53.236;5.704;2023-03-14T10:35:53;9.85;;;3.65;;
51718;SDS011;37795;53.236;5.704;2023-03-14T10:38:22;10.57;;;3.78;;
51718;SDS011;37795;53.236;5.704;2023-03-14T10:40:50;17.83;;;3.60;;
51718;SDS011;37795;53.236;5.704;2023-03-14T10:43:19;10.13;;;3.40;;
51718;SDS011;37795;53.236;5.704;2023-03-14T10:45:57;7.38;;;2.80;;
51718;SDS011;37795;53.236;5.704;2023-03-14T10:48:34;6.53;;;3.08;;
51718;SDS011;37795;53.236;5.704;2023-03-14T10:57:20;9.40;;;2.13;;
51718;SDS011;37795;53.236;5.704;2023-03-14T10:59:46;7.28;;;2.25;;
51718;SDS011;37795;53.236;5.704;2023-03-14T11:07:45;9.25;;;2.60;;
51718;SDS011;37795;53.236;5.704;2023-03-14T11:10:18;5.80;;;2.47;;
51718;SDS011;37795;53.236;5.704;2023-03-14T11:12:56;3.10;;;1.83;;
51718;SDS011;37795;53.236;5.704;2023-03-14T11:21:11;10.38;;;3.28;;
51718;SDS011;37795;53.236;5.704;2023-03-14T11:23:50;13.45;;;2.75;;
51718;SDS011;37795;53.236;5.704;2023-03-14T11:26:30;7.90;;;3.15;;
51718;SDS011;37795;53.236;5.704;2023-03-14T11:29:19;7.95;;;2.65;;
51718;SDS011;37795;53.236;5.704;2023-03-14T11:32:02;9.07;;;3.30;;
51718;SDS011;37795;53.236;5.704;2023-03-14T11:34:56;10.88;;;3.00;;
51718;SDS011;37795;53.236;5.704;2023-03-14T11:42:42;9.60;;;3.05;;
51718;SDS011;37795;53.236;5.704;2023-03-14T11:45:19;10.57;;;3.30;;
51718;SDS011;37795;53.236;5.704;2023-03-14T11:48:06;8.65;;;2.92;;
51718;SDS011;37795;53.236;5.704;2023-03-14T11:50:38;4.38;;;2.60;;
51718;SDS011;37795;53.236;5.704;2023-03-14T11:53:14;6.30;;;2.58;;
51718;SDS011;37795;53.236;5.704;2023-03-14T11:55:47;8.15;;;2.60;;
51718;SDS011;37795;53.236;5.704;2023-03-14T11:58:23;6.72;;;2.20;;
51718;SDS011;37795;53.236;5.704;2023-03-14T12:00:56;11.98;;;3.53;;
51718;SDS011;37795;53.236;5.704;2023-03-14T12:06:09;8.57;;;2.70;;
51718;SDS011;37795;53.236;5.704;2023-03-14T12:08:56;10.32;;;3.28;;
51718;SDS011;37795;53.236;5.704;2023-03-14T12:13:51;7.77;;;2.67;;
51718;SDS011;37795;53.236;5.704;2023-03-14T12:18:47;7.53;;;2.53;;
51718;SDS011;37795;53.236;5.704;2023-03-14T12:21:13;12.13;;;2.57;;
51718;SDS011;37795;53.236;5.704;2023-03-14T12:28:39;5.00;;;2.30;;
51718;SDS011;37795;53.236;5.704;2023-03-14T12:36:48;6.32;;;2.63;;
51718;SDS011;37795;53.236;5.704;2023-03-14T12:45:13;6.85;;;1.92;;
51718;SDS011;37795;53.236;5.704;2023-03-14T12:53:52;6.70;;;2.53;;
51718;SDS011;37795;53.236;5.704;2023-03-14T13:01:38;9.55;;;2.78;;
51718;SDS011;37795;53.236;5.704;2023-03-14T13:04:18;14.05;;;2.75;;
51718;SDS011;37795;53.236;5.704;2023-03-14T13:06:52;7.95;;;3.05;;
51718;SDS011;37795;53.236;5.704;2023-03-14T13:12:17;4.18;;;2.65;;
51718;SDS011;37795;53.236;5.704;2023-03-14T13:14:48;8.02;;;2.65;;
51718;SDS011;37795;53.236;5.704;2023-03-14T13:17:19;10.15;;;2.80;;
51718;SDS011;37795;53.236;5.704;2023-03-14T13:19:55;5.63;;;2.35;;
51718;SDS011;37795;53.236;5.704;2023-03-14T13:22:27;5.40;;;2.35;;
51718;SDS011;37795;53.236;5.704;2023-03-14T13:24:59;7.07;;;2.95;;
51718;SDS011;37795;53.236;5.704;2023-03-14T13:27:30;9.50;;;3.00;;
51718;SDS011;37795;53.236;5.704;2023-03-14T13:29:58;4.78;;;2.47;;
51718;SDS011;37795;53.236;5.704;2023-03-14T13:32:27;6.17;;;2.37;;
51718;SDS011;37795;53.236;5.704;2023-03-14T13:34:57;5.70;;;2.38;;
51718;SDS011;37795;53.236;5.704;2023-03-14T13:37:24;7.55;;;2.80;;
51718;SDS011;37795;53.236;5.704;2023-03-14T13:39:54;9.60;;;2.60;;
51718;SDS011;37795;53.236;5.704;2023-03-14T13:42:27;4.25;;;1.80;;
51718;SDS011;37795;53.236;5.704;2023-03-14T13:44:54;8.63;;;2.10;;
51718;SDS011;37795;53.236;5.704;2023-03-14T13:47:23;2.75;;;1.38;;
51718;SDS011;37795;53.236;5.704;2023-03-14T13:49:50;5.22;;;1.95;;
51718;SDS011;37795;53.236;5.704;2023-03-14T13:52:21;7.50;;;2.28;;
51718;SDS011;37795;53.236;5.704;2023-03-14T13:54:52;3.50;;;2.20;;
51718;SDS011;37795;53.236;5.704;2023-03-14T13:57:19;3.55;;;2.03;;
51718;SDS011;37795;53.236;5.704;2023-03-14T13:59:48;6.53;;;2.43;;
51718;SDS011;37795;53.236;5.704;2023-03-14T14:02:31;3.00;;;1.60;;
51718;SDS011;37795;53.236;5.704;2023-03-14T14:04:59;3.78;;;2.30;;
51718;SDS011;37795;53.236;5.704;2023-03-14T14:07:25;8.90;;;2.78;;
51718;SDS011;37795;53.236;5.704;2023-03-14T14:09:51;3.73;;;2.20;;
51718;SDS011;37795;53.236;5.704;2023-03-14T14:12:38;8.60;;;2.17;;
51718;SDS011;37795;53.236;5.704;2023-03-14T14:15:21;4.93;;;2.03;;
51718;SDS011;37795;53.236;5.704;2023-03-14T14:18:01;7.38;;;2.50;;
51718;SDS011;37795;53.236;5.704;2023-03-14T14:20:33;12.25;;;2.95;;
51718;SDS011;37795;53.236;5.704;2023-03-14T14:23:05;5.15;;;2.88;;
51718;SDS011;37795;53.236;5.704;2023-03-14T14:25:35;4.70;;;2.70;;
51718;SDS011;37795;53.236;5.704;2023-03-14T14:30:58;11.95;;;2.95;;
51718;SDS011;37795;53.236;5.704;2023-03-14T14:33:37;10.25;;;3.13;;
51718;SDS011;37795;53.236;5.704;2023-03-14T14:36:05;8.73;;;2.67;;
51718;SDS011;37795;53.236;5.704;2023-03-14T14:38:59;9.98;;;2.97;;
51718;SDS011;37795;53.236;5.704;2023-03-14T14:41:30;9.85;;;3.30;;
51718;SDS011;37795;53.236;5.704;2023-03-14T14:43:59;5.57;;;2.58;;
51718;SDS011;37795;53.236;5.704;2023-03-14T14:46:26;10.23;;;2.67;;
51718;SDS011;37795;53.236;5.704;2023-03-14T14:52:00;5.95;;;2.33;;
51718;SDS011;37795;53.236;5.704;2023-03-14T14:54:34;7.10;;;2.28;;
51718;SDS011;37795;53.236;5.704;2023-03-14T14:57:04;10.57;;;2.55;;
51718;SDS011;37795;53.236;5.704;2023-03-14T14:59:42;8.93;;;2.20;;
51718;SDS011;37795;53.236;5.704;2023-03-14T15:02:09;12.48;;;2.10;;
51718;SDS011;37795;53.236;5.704;2023-03-14T15:07:22;7.97;;;2.00;;
51718;SDS011;37795;53.236;5.704;2023-03-14T15:09:48;6.50;;;2.60;;
51718;SDS011;37795;53.236;5.704;2023-03-14T15:12:14;5.43;;;3.03;;
51718;SDS011;37795;53.236;5.704;2023-03-14T15:14:40;9.17;;;3.20;;
51718;SDS011;37795;53.236;5.704;2023-03-14T15:17:05;10.80;;;3.23;;
51718;SDS011;37795;53.236;5.704;2023-03-14T15:19:36;10.43;;;3.13;;
51718;SDS011;37795;53.236;5.704;2023-03-14T15:22:02;4.15;;;2.53;;
51718;SDS011;37795;53.236;5.704;2023-03-14T15:24:28;19.87;;;4.50;;
51718;SDS011;37795;53.236;5.704;2023-03-14T15:26:54;14.47;;;4.40;;
51718;SDS011;37795;53.236;5.704;2023-03-14T15:29:19;11.33;;;3.00;;
51718;SDS011;37795;53.236;5.704;2023-03-14T15:31:45;12.10;;;2.77;;
51718;SDS011;37795;53.236;5.704;2023-03-14T15:34:11;7.93;;;2.67;;
51718;SDS011;37795;53.236;5.704;2023-03-14T15:36:37;11.70;;;2.40;;
51718;SDS011;37795;53.236;5.704;2023-03-14T15:39:04;5.68;;;2.47;;
51718;SDS011;37795;53.236;5.704;2023-03-14T15:41:30;7.28;;;2.75;;
51718;SDS011;37795;53.236;5.704;2023-03-14T15:43:56;7.33;;;2.37;;
51718;SDS011;37795;53.236;5.704;2023-03-14T15:46:22;20.73;;;2.70;;
51718;SDS011;37795;53.236;5.704;2023-03-14T15:48:49;7.10;;;2.72;;
51718;SDS011;37795;53.236;5.704;2023-03-14T15:51:16;7.18;;;2.50;;
51718;SDS011;37795;53.236;5.704;2023-03-14T15:53:43;9.82;;;2.25;;
51718;SDS011;37795;53.236;5.704;2023-03-14T15:56:11;7.93;;;2.13;;
51718;SDS011;37795;53.236;5.704;2023-03-14T15:58:38;11.90;;;2.35;;
51718;SDS011;37795;53.236;5.704;2023-03-14T16:01:05;4.95;;;2.10;;
51718;SDS011;37795;53.236;5.704;2023-03-14T16:03:34;4.90;;;1.70;;
51718;SDS011;37795;53.236;5.704;2023-03-14T16:06:00;8.45;;;3.00;;
51718;SDS011;37795;53.236;5.704;2023-03-14T16:08:26;4.78;;;2.45;;
51718;SDS011;37795;53.236;5.704;2023-03-14T16:10:54;11.52;;;2.72;;
51718;SDS011;37795;53.236;5.704;2023-03-14T16:13:22;7.28;;;3.03;;
51718;SDS011;37795;53.236;5.704;2023-03-14T16:15:54;12.03;;;2.90;;
51718;SDS011;37795;53.236;5.704;2023-03-14T16:18:26;8.70;;;2.77;;
51718;SDS011;37795;53.236;5.704;2023-03-14T16:20:54;9.30;;;3.40;;